sensor_id;sensor_type;location;lat;lon;timestamp;temperature;humidity
27823;DHT22;29019;47.630;8.262;2023-07-20T00:01:31;24.20;62.20
27823;DHT22;29019;47.630;8.262;2023-07-20T00:05:32;24.20;62.10
27823;DHT22;29019;47.630;8.262;2023-07-20T00:09:32;24.20;62.20
27823;DHT22;29019;47.630;8.262;2023-07-20T00:13:33;24.20;62.10
27823;DHT22;29019;47.630;8.262;2023-07-20T00:17:33;24.20;62.20
27823;DHT22;29019;47.630;8.262;2023-07-20T00:21:34;24.10;62.10
27823;DHT22;29019;47.630;8.262;2023-07-20T00:25:34;24.20;62.10
27823;DHT22;29019;47.630;8.262;2023-07-20T00:29:35;24.20;62.10
27823;DHT22;29019;47.630;8.262;2023-07-20T00:33:36;24.10;62.10
27823;DHT22;29019;47.630;8.262;2023-07-20T00:37:37;24.10;62.10
27823;DHT22;29019;47.630;8.262;2023-07-20T00:41:37;24.20;62.20
27823;DHT22;29019;47.630;8.262;2023-07-20T00:45:38;24.10;62.10
27823;DHT22;29019;47.630;8.262;2023-07-20T00:49:39;24.20;62.20
27823;DHT22;29019;47.630;8.262;2023-07-20T00:53:39;24.10;62.10
27823;DHT22;29019;47.630;8.262;2023-07-20T00:57:40;24.20;62.20
27823;DHT22;29019;47.630;8.262;2023-07-20T01:01:41;24.10;62.20
27823;DHT22;29019;47.630;8.262;2023-07-20T01:13:57;24.10;62.10
27823;DHT22;29019;47.630;8.262;2023-07-20T01:17:58;24.10;62.10
27823;DHT22;29019;47.630;8.262;2023-07-20T01:26:07;24.20;62.20
27823;DHT22;29019;47.630;8.262;2023-07-20T01:34:11;24.20;62.20
27823;DHT22;29019;47.630;8.262;2023-07-20T01:38:13;24.10;62.10
27823;DHT22;29019;47.630;8.262;2023-07-20T01:42:14;24.20;62.20
27823;DHT22;29019;47.630;8.262;2023-07-20T01:46:14;24.10;62.10
27823;DHT22;29019;47.630;8.262;2023-07-20T01:50:15;24.10;62.10
27823;DHT22;29019;47.630;8.262;2023-07-20T01:54:15;24.10;62.10
27823;DHT22;29019;47.630;8.262;2023-07-20T01:58:16;24.20;62.10
27823;DHT22;29019;47.630;8.262;2023-07-20T02:02:16;24.20;62.20
27823;DHT22;29019;47.630;8.262;2023-07-20T02:06:18;24.10;62.10
27823;DHT22;29019;47.630;8.262;2023-07-20T02:10:18;24.20;62.20
27823;DHT22;29019;47.630;8.262;2023-07-20T02:14:19;24.10;62.20
27823;DHT22;29019;47.630;8.262;2023-07-20T02:18:19;24.10;62.10
27823;DHT22;29019;47.630;8.262;2023-07-20T02:22:20;24.10;62.10
27823;DHT22;29019;47.630;8.262;2023-07-20T02:26:21;24.10;62.10
27823;DHT22;29019;47.630;8.262;2023-07-20T02:30:21;24.10;62.10
27823;DHT22;29019;47.630;8.262;2023-07-20T02:34:22;24.20;62.10
27823;DHT22;29019;47.630;8.262;2023-07-20T02:38:22;24.10;62.10
27823;DHT22;29019;47.630;8.262;2023-07-20T02:42:23;24.10;62.10
27823;DHT22;29019;47.630;8.262;2023-07-20T02:46:26;24.20;62.10
27823;DHT22;29019;47.630;8.262;2023-07-20T02:50:26;24.10;62.10
27823;DHT22;29019;47.630;8.262;2023-07-20T02:54:28;24.10;62.10
27823;DHT22;29019;47.630;8.262;2023-07-20T02:58:28;24.10;62.00
27823;DHT22;29019;47.630;8.262;2023-07-20T03:02:29;24.10;62.10
27823;DHT22;29019;47.630;8.262;2023-07-20T03:06:30;24.10;62.10
27823;DHT22;29019;47.630;8.262;2023-07-20T03:10:31;24.10;62.10
27823;DHT22;29019;47.630;8.262;2023-07-20T03:14:31;24.20;62.10
27823;DHT22;29019;47.630;8.262;2023-07-20T03:18:32;24.10;62.10
27823;DHT22;29019;47.630;8.262;2023-07-20T03:22:32;24.10;62.20
27823;DHT22;29019;47.630;8.262;2023-07-20T03:26:33;24.10;62.20
27823;DHT22;29019;47.630;8.262;2023-07-20T03:30:34;24.10;62.10
27823;DHT22;29019;47.630;8.262;2023-07-20T03:34:35;24.10;62.20
27823;DHT22;29019;47.630;8.262;2023-07-20T03:38:35;24.10;62.10
27823;DHT22;29019;47.630;8.262;2023-07-20T03:42:36;24.10;62.10
27823;DHT22;29019;47.630;8.262;2023-07-20T03:46:36;24.10;62.10
27823;DHT22;29019;47.630;8.262;2023-07-20T03:50:38;24.10;62.10
27823;DHT22;29019;47.630;8.262;2023-07-20T03:54:38;24.10;62.10
27823;DHT22;29019;47.630;8.262;2023-07-20T03:58:39;24.10;62.10
27823;DHT22;29019;47.630;8.262;2023-07-20T04:02:39;24.10;62.10
27823;DHT22;29019;47.630;8.262;2023-07-20T04:06:40;24.10;62.10
27823;DHT22;29019;47.630;8.262;2023-07-20T04:10:43;24.10;62.10
27823;DHT22;29019;47.630;8.262;2023-07-20T04:14:43;24.10;62.10
27823;DHT22;29019;47.630;8.262;2023-07-20T04:18:44;24.10;62.20
27823;DHT22;29019;47.630;8.262;2023-07-20T04:22:44;24.10;62.10
27823;DHT22;29019;47.630;8.262;2023-07-20T04:26:45;24.10;62.90
27823;DHT22;29019;47.630;8.262;2023-07-20T04:30:49;24.10;62.20
27823;DHT22;29019;47.630;8.262;2023-07-20T04:34:50;24.10;62.20
27823;DHT22;29019;47.630;8.262;2023-07-20T04:38:51;24.10;62.20
27823;DHT22;29019;47.630;8.262;2023-07-20T04:42:51;24.10;62.20
27823;DHT22;29019;47.630;8.262;2023-07-20T04:46:52;24.10;62.20
27823;DHT22;29019;47.630;8.262;2023-07-20T04:50:52;24.10;62.30
27823;DHT22;29019;47.630;8.262;2023-07-20T04:54:53;24.10;62.20
27823;DHT22;29019;47.630;8.262;2023-07-20T04:58:53;24.10;62.20
27823;DHT22;29019;47.630;8.262;2023-07-20T05:02:54;24.10;62.20
27823;DHT22;29019;47.630;8.262;2023-07-20T05:06:54;24.10;62.20
27823;DHT22;29019;47.630;8.262;2023-07-20T05:10:55;24.10;62.30
27823;DHT22;29019;47.630;8.262;2023-07-20T05:14:55;24.10;62.20
27823;DHT22;29019;47.630;8.262;2023-07-20T05:18:56;24.10;62.20
27823;DHT22;29019;47.630;8.262;2023-07-20T05:22:57;24.10;62.20
27823;DHT22;29019;47.630;8.262;2023-07-20T05:26:58;24.10;62.20
27823;DHT22;29019;47.630;8.262;2023-07-20T05:30:59;24.10;62.20
27823;DHT22;29019;47.630;8.262;2023-07-20T05:35:00;24.10;62.20
27823;DHT22;29019;47.630;8.262;2023-07-20T05:39:00;24.10;62.20
27823;DHT22;29019;47.630;8.262;2023-07-20T05:43:01;24.10;62.20
27823;DHT22;29019;47.630;8.262;2023-07-20T05:47:01;24.10;62.20
27823;DHT22;29019;47.630;8.262;2023-07-20T05:51:02;24.10;62.30
27823;DHT22;29019;47.630;8.262;2023-07-20T05:55:03;24.10;62.30
27823;DHT22;29019;47.630;8.262;2023-07-20T05:59:04;24.10;62.40
27823;DHT22;29019;47.630;8.262;2023-07-20T06:03:04;24.10;62.30
27823;DHT22;29019;47.630;8.262;2023-07-20T06:07:05;24.10;62.30
27823;DHT22;29019;47.630;8.262;2023-07-20T06:11:07;24.10;62.30
27823;DHT22;29019;47.630;8.262;2023-07-20T06:15:23;24.10;62.30
27823;DHT22;29019;47.630;8.262;2023-07-20T06:19:24;24.10;62.30
27823;DHT22;29019;47.630;8.262;2023-07-20T06:23:25;24.10;62.30
27823;DHT22;29019;47.630;8.262;2023-07-20T06:27:25;24.10;62.30
27823;DHT22;29019;47.630;8.262;2023-07-20T06:31:26;24.10;62.20
27823;DHT22;29019;47.630;8.262;2023-07-20T06:35:26;24.10;62.30
27823;DHT22;29019;47.630;8.262;2023-07-20T06:39:27;24.10;62.30
27823;DHT22;29019;47.630;8.262;2023-07-20T06:43:27;24.10;62.30
27823;DHT22;29019;47.630;8.262;2023-07-20T06:47:28;24.10;62.20
27823;DHT22;29019;47.630;8.262;2023-07-20T06:51:28;24.10;62.20
27823;DHT22;29019;47.630;8.262;2023-07-20T06:55:29;24.10;62.30
27823;DHT22;29019;47.630;8.262;2023-07-20T06:59:29;24.10;62.20
27823;DHT22;29019;47.630;8.262;2023-07-20T07:03:30;24.10;62.30
27823;DHT22;29019;47.630;8.262;2023-07-20T07:07:30;24.00;62.30
27823;DHT22;29019;47.630;8.262;2023-07-20T07:11:31;24.00;62.30
27823;DHT22;29019;47.630;8.262;2023-07-20T07:15:31;24.00;62.30
27823;DHT22;29019;47.630;8.262;2023-07-20T07:19:32;24.00;62.30
27823;DHT22;29019;47.630;8.262;2023-07-20T07:23:33;24.00;62.30
27823;DHT22;29019;47.630;8.262;2023-07-20T07:27:33;24.10;62.30
27823;DHT22;29019;47.630;8.262;2023-07-20T07:31:34;24.00;62.30
27823;DHT22;29019;47.630;8.262;2023-07-20T07:35:36;24.00;62.30
27823;DHT22;29019;47.630;8.262;2023-07-20T07:39:37;24.10;62.30
27823;DHT22;29019;47.630;8.262;2023-07-20T07:43:37;24.10;62.30
27823;DHT22;29019;47.630;8.262;2023-07-20T07:47:39;24.10;62.30
27823;DHT22;29019;47.630;8.262;2023-07-20T07:51:39;24.00;62.20
27823;DHT22;29019;47.630;8.262;2023-07-20T07:55:40;24.10;62.30
27823;DHT22;29019;47.630;8.262;2023-07-20T07:59:41;24.10;62.30
27823;DHT22;29019;47.630;8.262;2023-07-20T08:03:42;24.10;62.30
27823;DHT22;29019;47.630;8.262;2023-07-20T08:07:42;24.10;62.30
27823;DHT22;29019;47.630;8.262;2023-07-20T08:11:43;24.10;62.30
27823;DHT22;29019;47.630;8.262;2023-07-20T08:15:45;24.10;62.30
27823;DHT22;29019;47.630;8.262;2023-07-20T08:19:48;24.10;62.30
27823;DHT22;29019;47.630;8.262;2023-07-20T08:23:49;24.00;62.30
27823;DHT22;29019;47.630;8.262;2023-07-20T08:27:49;24.00;62.40
27823;DHT22;29019;47.630;8.262;2023-07-20T08:31:50;24.00;62.30
27823;DHT22;29019;47.630;8.262;2023-07-20T08:35:50;24.00;62.30
27823;DHT22;29019;47.630;8.262;2023-07-20T08:39:51;24.10;62.30
27823;DHT22;29019;47.630;8.262;2023-07-20T08:43:51;24.00;62.30
27823;DHT22;29019;47.630;8.262;2023-07-20T08:47:55;24.10;62.30
27823;DHT22;29019;47.630;8.262;2023-07-20T08:51:56;24.10;62.30
27823;DHT22;29019;47.630;8.262;2023-07-20T08:55:58;24.10;62.20
27823;DHT22;29019;47.630;8.262;2023-07-20T09:00:00;24.10;62.30
27823;DHT22;29019;47.630;8.262;2023-07-20T09:04:02;24.10;62.30
27823;DHT22;29019;47.630;8.262;2023-07-20T09:08:03;24.00;62.20
27823;DHT22;29019;47.630;8.262;2023-07-20T09:12:12;24.10;62.30
27823;DHT22;29019;47.630;8.262;2023-07-20T09:16:15;24.10;62.30
27823;DHT22;29019;47.630;8.262;2023-07-20T09:20:17;24.00;63.10
27823;DHT22;29019;47.630;8.262;2023-07-20T09:24:18;24.00;62.40
27823;DHT22;29019;47.630;8.262;2023-07-20T09:28:19;24.00;62.40
27823;DHT22;29019;47.630;8.262;2023-07-20T09:32:20;24.00;62.30
27823;DHT22;29019;47.630;8.262;2023-07-20T09:36:21;24.00;62.30
27823;DHT22;29019;47.630;8.262;2023-07-20T09:40:21;24.00;62.30
27823;DHT22;29019;47.630;8.262;2023-07-20T09:44:22;24.00;62.30
27823;DHT22;29019;47.630;8.262;2023-07-20T09:48:23;24.00;62.20
27823;DHT22;29019;47.630;8.262;2023-07-20T09:52:24;24.10;62.20
27823;DHT22;29019;47.630;8.262;2023-07-20T09:56:25;24.00;62.20
27823;DHT22;29019;47.630;8.262;2023-07-20T10:00:26;24.00;62.20
27823;DHT22;29019;47.630;8.262;2023-07-20T10:04:27;24.10;62.30
27823;DHT22;29019;47.630;8.262;2023-07-20T10:08:29;24.10;62.20
27823;DHT22;29019;47.630;8.262;2023-07-20T10:12:30;24.10;62.20
27823;DHT22;29019;47.630;8.262;2023-07-20T10:16:35;24.10;62.20
27823;DHT22;29019;47.630;8.262;2023-07-20T10:20:37;24.10;62.20
27823;DHT22;29019;47.630;8.262;2023-07-20T10:24:39;24.10;62.10
27823;DHT22;29019;47.630;8.262;2023-07-20T10:28:40;24.10;62.10
27823;DHT22;29019;47.630;8.262;2023-07-20T10:32:40;24.10;62.10
27823;DHT22;29019;47.630;8.262;2023-07-20T10:36:44;24.10;62.10
27823;DHT22;29019;47.630;8.262;2023-07-20T10:40:55;24.10;62.10
27823;DHT22;29019;47.630;8.262;2023-07-20T10:44:56;24.10;62.00
27823;DHT22;29019;47.630;8.262;2023-07-20T10:49:00;24.10;62.00
27823;DHT22;29019;47.630;8.262;2023-07-20T10:53:15;24.10;62.00
27823;DHT22;29019;47.630;8.262;2023-07-20T10:57:29;24.10;62.10
27823;DHT22;29019;47.630;8.262;2023-07-20T11:01:36;24.10;62.00
27823;DHT22;29019;47.630;8.262;2023-07-20T11:05:40;24.10;62.00
27823;DHT22;29019;47.630;8.262;2023-07-20T11:09:42;24.10;62.00
27823;DHT22;29019;47.630;8.262;2023-07-20T11:13:53;24.10;62.00
27823;DHT22;29019;47.630;8.262;2023-07-20T11:18:01;24.10;62.00
27823;DHT22;29019;47.630;8.262;2023-07-20T11:22:10;24.10;61.90
27823;DHT22;29019;47.630;8.262;2023-07-20T11:26:12;24.10;62.00
27823;DHT22;29019;47.630;8.262;2023-07-20T11:30:16;24.10;62.10
27823;DHT22;29019;47.630;8.262;2023-07-20T11:34:17;24.10;62.10
27823;DHT22;29019;47.630;8.262;2023-07-20T11:38:18;24.10;62.10
27823;DHT22;29019;47.630;8.262;2023-07-20T11:42:19;24.10;62.00
27823;DHT22;29019;47.630;8.262;2023-07-20T11:46:19;24.10;62.00
27823;DHT22;29019;47.630;8.262;2023-07-20T11:50:20;24.10;62.00
27823;DHT22;29019;47.630;8.262;2023-07-20T11:54:21;24.10;61.90
27823;DHT22;29019;47.630;8.262;2023-07-20T11:58:21;24.10;61.90
27823;DHT22;29019;47.630;8.262;2023-07-20T12:02:22;24.10;61.90
27823;DHT22;29019;47.630;8.262;2023-07-20T12:06:23;24.10;61.90
27823;DHT22;29019;47.630;8.262;2023-07-20T12:10:25;24.10;61.90
27823;DHT22;29019;47.630;8.262;2023-07-20T12:14:26;24.10;61.90
27823;DHT22;29019;47.630;8.262;2023-07-20T12:18:34;24.10;61.90
27823;DHT22;29019;47.630;8.262;2023-07-20T12:22:40;24.10;61.90
27823;DHT22;29019;47.630;8.262;2023-07-20T12:26:43;24.10;61.90
27823;DHT22;29019;47.630;8.262;2023-07-20T12:30:44;24.10;61.90
27823;DHT22;29019;47.630;8.262;2023-07-20T12:34:45;24.10;61.90
27823;DHT22;29019;47.630;8.262;2023-07-20T12:38:45;24.10;61.90
27823;DHT22;29019;47.630;8.262;2023-07-20T12:42:46;24.10;61.90
27823;DHT22;29019;47.630;8.262;2023-07-20T12:46:46;24.10;62.00
27823;DHT22;29019;47.630;8.262;2023-07-20T12:50:47;24.10;61.90
27823;DHT22;29019;47.630;8.262;2023-07-20T12:54:47;24.10;61.90
27823;DHT22;29019;47.630;8.262;2023-07-20T12:58:48;24.10;61.90
27823;DHT22;29019;47.630;8.262;2023-07-20T13:02:50;24.10;61.90
27823;DHT22;29019;47.630;8.262;2023-07-20T13:06:51;24.10;61.90
27823;DHT22;29019;47.630;8.262;2023-07-20T13:10:52;24.10;61.90
27823;DHT22;29019;47.630;8.262;2023-07-20T13:14:52;24.10;61.90
27823;DHT22;29019;47.630;8.262;2023-07-20T13:18:53;24.10;61.80
27823;DHT22;29019;47.630;8.262;2023-07-20T13:22:53;24.10;61.80
27823;DHT22;29019;47.630;8.262;2023-07-20T13:26:54;24.10;61.80
27823;DHT22;29019;47.630;8.262;2023-07-20T13:30:54;24.20;61.90
27823;DHT22;29019;47.630;8.262;2023-07-20T13:34:55;24.10;61.80
27823;DHT22;29019;47.630;8.262;2023-07-20T13:38:56;24.10;61.80
27823;DHT22;29019;47.630;8.262;2023-07-20T13:42:56;24.10;61.80
27823;DHT22;29019;47.630;8.262;2023-07-20T13:46:57;24.10;61.80
27823;DHT22;29019;47.630;8.262;2023-07-20T13:50:57;24.10;61.80
27823;DHT22;29019;47.630;8.262;2023-07-20T13:54:58;24.10;61.90
27823;DHT22;29019;47.630;8.262;2023-07-20T13:58:58;24.10;61.90
27823;DHT22;29019;47.630;8.262;2023-07-20T14:02:59;24.10;61.90
27823;DHT22;29019;47.630;8.262;2023-07-20T14:06:59;24.10;61.90
27823;DHT22;29019;47.630;8.262;2023-07-20T14:11:00;24.10;61.80
27823;DHT22;29019;47.630;8.262;2023-07-20T14:15:00;24.10;61.80
27823;DHT22;29019;47.630;8.262;2023-07-20T14:19:01;24.10;61.90
27823;DHT22;29019;47.630;8.262;2023-07-20T14:23:01;24.10;61.80
27823;DHT22;29019;47.630;8.262;2023-07-20T14:27:02;24.10;61.80
27823;DHT22;29019;47.630;8.262;2023-07-20T14:31:02;24.10;61.80
27823;DHT22;29019;47.630;8.262;2023-07-20T14:35:03;24.10;61.80
27823;DHT22;29019;47.630;8.262;2023-07-20T14:39:04;24.10;61.80
27823;DHT22;29019;47.630;8.262;2023-07-20T14:43:05;24.10;61.80
27823;DHT22;29019;47.630;8.262;2023-07-20T14:47:06;24.20;61.80
27823;DHT22;29019;47.630;8.262;2023-07-20T14:51:06;24.10;61.70
27823;DHT22;29019;47.630;8.262;2023-07-20T14:55:07;24.20;61.80
27823;DHT22;29019;47.630;8.262;2023-07-20T14:59:07;24.20;61.80
27823;DHT22;29019;47.630;8.262;2023-07-20T15:03:08;24.10;61.70
27823;DHT22;29019;47.630;8.262;2023-07-20T15:07:09;24.10;61.70
27823;DHT22;29019;47.630;8.262;2023-07-20T15:11:10;24.10;61.80
27823;DHT22;29019;47.630;8.262;2023-07-20T15:15:14;24.10;61.80
27823;DHT22;29019;47.630;8.262;2023-07-20T15:19:17;24.10;61.80
27823;DHT22;29019;47.630;8.262;2023-07-20T15:23:18;24.10;61.80
27823;DHT22;29019;47.630;8.262;2023-07-20T15:27:18;24.10;61.80
27823;DHT22;29019;47.630;8.262;2023-07-20T15:31:20;24.10;61.80
27823;DHT22;29019;47.630;8.262;2023-07-20T15:35:20;24.10;61.70
27823;DHT22;29019;47.630;8.262;2023-07-20T15:39:21;24.10;61.70
27823;DHT22;29019;47.630;8.262;2023-07-20T15:43:21;24.10;61.80
27823;DHT22;29019;47.630;8.262;2023-07-20T15:47:22;24.20;61.80
27823;DHT22;29019;47.630;8.262;2023-07-20T15:51:23;24.10;61.70
27823;DHT22;29019;47.630;8.262;2023-07-20T15:55:23;24.10;61.80
27823;DHT22;29019;47.630;8.262;2023-07-20T15:59:24;24.10;61.70
27823;DHT22;29019;47.630;8.262;2023-07-20T16:03:24;24.10;61.70
27823;DHT22;29019;47.630;8.262;2023-07-20T16:07:26;24.10;61.70
27823;DHT22;29019;47.630;8.262;2023-07-20T16:11:26;24.10;61.70
27823;DHT22;29019;47.630;8.262;2023-07-20T16:15:27;24.10;61.80
27823;DHT22;29019;47.630;8.262;2023-07-20T16:19:28;24.10;61.60
27823;DHT22;29019;47.630;8.262;2023-07-20T16:23:29;24.10;61.80
27823;DHT22;29019;47.630;8.262;2023-07-20T16:27:30;24.10;61.80
27823;DHT22;29019;47.630;8.262;2023-07-20T16:31:30;24.10;61.80
27823;DHT22;29019;47.630;8.262;2023-07-20T16:35:35;24.10;61.80
27823;DHT22;29019;47.630;8.262;2023-07-20T16:39:36;24.10;61.80
27823;DHT22;29019;47.630;8.262;2023-07-20T16:43:40;24.10;61.80
27823;DHT22;29019;47.630;8.262;2023-07-20T16:47:41;24.10;61.70
27823;DHT22;29019;47.630;8.262;2023-07-20T16:51:41;24.20;61.80
27823;DHT22;29019;47.630;8.262;2023-07-20T16:55:42;24.10;61.70
27823;DHT22;29019;47.630;8.262;2023-07-20T16:59:42;24.10;61.70
27823;DHT22;29019;47.630;8.262;2023-07-20T17:03:44;24.10;61.70
27823;DHT22;29019;47.630;8.262;2023-07-20T17:07:44;24.10;61.70
27823;DHT22;29019;47.630;8.262;2023-07-20T17:11:45;24.10;61.70
27823;DHT22;29019;47.630;8.262;2023-07-20T17:15:46;24.20;61.80
27823;DHT22;29019;47.630;8.262;2023-07-20T17:19:47;24.10;61.70
27823;DHT22;29019;47.630;8.262;2023-07-20T17:23:51;24.10;61.70
27823;DHT22;29019;47.630;8.262;2023-07-20T17:27:51;24.10;61.70
27823;DHT22;29019;47.630;8.262;2023-07-20T17:31:52;24.10;61.70
27823;DHT22;29019;47.630;8.262;2023-07-20T17:35:53;24.10;61.70
27823;DHT22;29019;47.630;8.262;2023-07-20T17:39:54;24.10;61.70
27823;DHT22;29019;47.630;8.262;2023-07-20T17:43:55;24.10;61.80
27823;DHT22;29019;47.630;8.262;2023-07-20T17:47:56;24.10;61.80
27823;DHT22;29019;47.630;8.262;2023-07-20T17:51:56;24.10;61.80
27823;DHT22;29019;47.630;8.262;2023-07-20T17:55:59;24.10;61.80
27823;DHT22;29019;47.630;8.262;2023-07-20T18:00:01;24.10;61.70
27823;DHT22;29019;47.630;8.262;2023-07-20T18:04:04;24.10;61.80
27823;DHT22;29019;47.630;8.262;2023-07-20T18:08:04;24.10;61.80
27823;DHT22;29019;47.630;8.262;2023-07-20T18:12:05;24.10;61.70
27823;DHT22;29019;47.630;8.262;2023-07-20T18:16:06;24.10;61.70
27823;DHT22;29019;47.630;8.262;2023-07-20T18:20:06;24.10;61.80
27823;DHT22;29019;47.630;8.262;2023-07-20T18:24:07;24.10;61.70
27823;DHT22;29019;47.630;8.262;2023-07-20T18:28:08;24.10;61.70
27823;DHT22;29019;47.630;8.262;2023-07-20T18:32:08;24.10;61.70
27823;DHT22;29019;47.630;8.262;2023-07-20T18:36:09;24.10;61.70
27823;DHT22;29019;47.630;8.262;2023-07-20T18:40:09;24.10;61.70
27823;DHT22;29019;47.630;8.262;2023-07-20T18:44:10;24.10;61.70
27823;DHT22;29019;47.630;8.262;2023-07-20T18:48:11;24.10;61.70
27823;DHT22;29019;47.630;8.262;2023-07-20T18:52:12;24.10;61.70
27823;DHT22;29019;47.630;8.262;2023-07-20T18:56:13;24.10;61.80
27823;DHT22;29019;47.630;8.262;2023-07-20T19:00:13;24.10;61.80
27823;DHT22;29019;47.630;8.262;2023-07-20T19:04:17;24.10;61.90
27823;DHT22;29019;47.630;8.262;2023-07-20T19:08:17;24.10;61.80
27823;DHT22;29019;47.630;8.262;2023-07-20T19:12:18;24.10;61.80
27823;DHT22;29019;47.630;8.262;2023-07-20T19:16:18;24.10;61.80
27823;DHT22;29019;47.630;8.262;2023-07-20T19:20:20;24.10;61.80
27823;DHT22;29019;47.630;8.262;2023-07-20T19:24:21;24.10;61.80
27823;DHT22;29019;47.630;8.262;2023-07-20T19:28:21;24.10;61.80
27823;DHT22;29019;47.630;8.262;2023-07-20T19:32:22;24.10;61.80
27823;DHT22;29019;47.630;8.262;2023-07-20T19:36:23;24.10;61.80
27823;DHT22;29019;47.630;8.262;2023-07-20T19:40:23;24.10;61.80
27823;DHT22;29019;47.630;8.262;2023-07-20T19:44:24;24.10;61.80
27823;DHT22;29019;47.630;8.262;2023-07-20T19:48:24;24.10;61.80
27823;DHT22;29019;47.630;8.262;2023-07-20T19:52:25;24.10;61.70
27823;DHT22;29019;47.630;8.262;2023-07-20T19:56:25;24.20;61.80
27823;DHT22;29019;47.630;8.262;2023-07-20T20:00:26;24.10;61.70
27823;DHT22;29019;47.630;8.262;2023-07-20T20:04:26;24.10;61.70
27823;DHT22;29019;47.630;8.262;2023-07-20T20:08:27;24.10;61.70
27823;DHT22;29019;47.630;8.262;2023-07-20T20:12:29;24.10;61.80
27823;DHT22;29019;47.630;8.262;2023-07-20T20:16:30;24.10;61.80
27823;DHT22;29019;47.630;8.262;2023-07-20T20:20:31;24.10;61.80
27823;DHT22;29019;47.630;8.262;2023-07-20T20:24:34;24.10;61.80
27823;DHT22;29019;47.630;8.262;2023-07-20T20:28:36;24.10;61.80
27823;DHT22;29019;47.630;8.262;2023-07-20T20:32:37;24.10;61.80
27823;DHT22;29019;47.630;8.262;2023-07-20T20:36:42;24.10;61.80
27823;DHT22;29019;47.630;8.262;2023-07-20T20:40:47;24.10;61.80
27823;DHT22;29019;47.630;8.262;2023-07-20T20:44:48;24.10;61.80
27823;DHT22;29019;47.630;8.262;2023-07-20T20:48:48;24.10;61.80
27823;DHT22;29019;47.630;8.262;2023-07-20T20:52:49;24.10;61.80
27823;DHT22;29019;47.630;8.262;2023-07-20T20:56:49;24.10;61.70
27823;DHT22;29019;47.630;8.262;2023-07-20T21:00:50;24.10;61.70
27823;DHT22;29019;47.630;8.262;2023-07-20T21:04:51;24.10;61.70
27823;DHT22;29019;47.630;8.262;2023-07-20T21:08:51;24.10;61.70
27823;DHT22;29019;47.630;8.262;2023-07-20T21:12:53;24.10;61.70
27823;DHT22;29019;47.630;8.262;2023-07-20T21:16:54;24.10;61.70
27823;DHT22;29019;47.630;8.262;2023-07-20T21:20:56;24.10;63.20
27823;DHT22;29019;47.630;8.262;2023-07-20T21:24:56;24.10;62.10
27823;DHT22;29019;47.630;8.262;2023-07-20T21:28:57;24.20;62.20
27823;DHT22;29019;47.630;8.262;2023-07-20T21:32:58;24.20;62.30
27823;DHT22;29019;47.630;8.262;2023-07-20T21:36:58;24.20;62.50
27823;DHT22;29019;47.630;8.262;2023-07-20T21:40:59;24.20;62.60
27823;DHT22;29019;47.630;8.262;2023-07-20T21:44:59;24.30;62.50
27823;DHT22;29019;47.630;8.262;2023-07-20T21:49:00;24.30;62.20
27823;DHT22;29019;47.630;8.262;2023-07-20T21:53:00;24.30;62.10
27823;DHT22;29019;47.630;8.262;2023-07-20T21:57:01;24.30;62.00
27823;DHT22;29019;47.630;8.262;2023-07-20T22:01:01;24.40;62.50
27823;DHT22;29019;47.630;8.262;2023-07-20T22:05:04;24.40;62.30
27823;DHT22;29019;47.630;8.262;2023-07-20T22:09:05;24.30;62.60
27823;DHT22;29019;47.630;8.262;2023-07-20T22:13:05;24.40;61.90
27823;DHT22;29019;47.630;8.262;2023-07-20T22:17:06;24.40;61.80
27823;DHT22;29019;47.630;8.262;2023-07-20T22:21:07;24.40;61.80
27823;DHT22;29019;47.630;8.262;2023-07-20T22:25:11;24.40;61.80
27823;DHT22;29019;47.630;8.262;2023-07-20T22:29:12;24.50;62.00
27823;DHT22;29019;47.630;8.262;2023-07-20T22:33:12;24.50;62.00
27823;DHT22;29019;47.630;8.262;2023-07-20T22:37:13;24.50;61.80
27823;DHT22;29019;47.630;8.262;2023-07-20T22:41:13;24.40;61.80
27823;DHT22;29019;47.630;8.262;2023-07-20T22:45:14;24.50;61.80
27823;DHT22;29019;47.630;8.262;2023-07-20T22:49:15;24.50;62.00
27823;DHT22;29019;47.630;8.262;2023-07-20T22:53:15;24.40;62.20
27823;DHT22;29019;47.630;8.262;2023-07-20T22:57:16;24.40;62.50
27823;DHT22;29019;47.630;8.262;2023-07-20T23:01:17;24.40;62.90
27823;DHT22;29019;47.630;8.262;2023-07-20T23:05:17;24.50;62.80
27823;DHT22;29019;47.630;8.262;2023-07-20T23:09:18;24.50;62.00
27823;DHT22;29019;47.630;8.262;2023-07-20T23:13:18;24.60;61.90
27823;DHT22;29019;47.630;8.262;2023-07-20T23:17:19;24.60;61.90
27823;DHT22;29019;47.630;8.262;2023-07-20T23:21:20;24.60;62.00
27823;DHT22;29019;47.630;8.262;2023-07-20T23:25:21;24.60;62.00
27823;DHT22;29019;47.630;8.262;2023-07-20T23:29:21;24.60;62.00
27823;DHT22;29019;47.630;8.262;2023-07-20T23:33:23;24.60;62.20
27823;DHT22;29019;47.630;8.262;2023-07-20T23:37:24;24.60;62.70
27823;DHT22;29019;47.630;8.262;2023-07-20T23:41:24;24.50;61.90
27823;DHT22;29019;47.630;8.262;2023-07-20T23:45:26;24.60;62.00
27823;DHT22;29019;47.630;8.262;2023-07-20T23:49:26;24.60;61.90
27823;DHT22;29019;47.630;8.262;2023-07-20T23:53:27;24.60;61.90
27823;DHT22;29019;47.630;8.262;2023-07-20T23:57:28;24.60;62.00
